Time;durP1;ratioP1;P1;durP2;ratioP2;P2;SDS_P1;SDS_P2;PMS_P1;PMS_P2;Temp;Humidity;BMP_temperature;BMP_pressure;BME280_temperature;BME280_humidity;BME280_pressure;Samples;Min_cycle;Max_cycle;Signal;HPM_P1;HPM_P2
2021/09/29 00:01:08;;;;;;;;;;;;;;;8.80;73.36;101849.05;1895991;75;20114;-62
2021/09/29 00:03:37;;;;;;;;;;;;;;;8.83;73.33;101854.24;1895964;76;20122;-62
2021/09/29 00:06:05;;;;;;;;;;;;;;;8.87;73.61;101849.39;1895906;76;20172;-62
2021/09/29 00:08:33;;;;;;;;;;;;;;;8.91;73.60;101846.70;1895988;74;20118;-62
2021/09/29 00:11:01;;;;;;;;;;;;;;;8.91;73.61;101840.14;1895892;76;20110;-62
2021/09/29 00:13:29;;;;;;;;;;;;;;;8.93;73.56;101840.55;1895998;76;20110;-62
2021/09/29 00:15:57;;;;;;;;;;;;;;;8.93;73.64;101839.24;1895978;76;20111;-62
2021/09/29 00:18:25;;;;;;;;;;;;;;;8.97;73.62;101846.63;1896079;76;20169;-62
2021/09/29 00:20:53;;;;;;;;;;;;;;;9.03;73.52;101843.91;1896087;76;20110;-62
2021/09/29 00:23:21;;;;;;;;;;;;;;;9.06;73.33;101846.05;1895978;76;20189;-62
2021/09/29 00:25:49;;;;;;;;;;;;;;;9.09;73.35;101845.11;1895860;76;20114;-62
2021/09/29 00:28:17;;;;;;;;;;;;;;;9.12;73.52;101845.08;1895915;76;20187;-62
2021/09/29 00:30:51;;;;;;;;;;;;;;;9.15;73.69;101846.78;1895988;76;20249;-62
2021/09/29 00:33:19;;;;;;;;;;;;;;;9.17;73.50;101848.52;1896087;74;20356;-62
2021/09/29 00:35:47;;;;;;;;;;;;;;;9.18;73.36;101848.92;1896146;76;20368;-62
2021/09/29 00:38:15;;;;;;;;;;;;;;;9.20;73.19;101844.95;1895867;76;20185;-61
2021/09/29 00:40:43;;;;;;;;;;;;;;;9.21;73.21;101850.20;1895910;74;20142;-61
2021/09/29 00:43:11;;;;;;;;;;;;;;;9.19;73.34;101844.55;1895923;76;20541;-61
2021/09/29 00:45:38;;;;;;;;;;;;;;;9.15;73.29;101844.16;1895847;76;20118;-61
2021/09/29 00:48:06;;;;;;;;;;;;;;;9.14;73.20;101851.17;1890753;75;20122;-61
2021/09/29 00:50:35;;;;;;;;;;;;;;;9.12;73.19;101845.53;1883817;76;20150;-62
2021/09/29 00:53:04;;;;;;;;;;;;;;;9.10;73.55;101843.38;1883279;76;20107;-61
2021/09/29 00:55:32;;;;;;;;;;;;;;;9.08;73.41;101845.57;1883999;76;20119;-61
2021/09/29 00:58:00;;;;;;;;;;;;;;;9.07;73.37;101840.33;1884066;76;20115;-61
2021/09/29 01:00:28;;;;;;;;;;;;;;;9.06;73.37;101847.81;1883997;76;20119;-61
2021/09/29 01:02:55;;;;;;;;;;;;;;;9.07;73.44;101849.11;1883981;76;20157;-61
2021/09/29 01:05:23;;;;;;;;;;;;;;;9.07;73.37;101841.22;1883853;76;20107;-61
2021/09/29 01:07:52;;;;;;;;;;;;;;;9.10;73.24;101846.01;1883971;75;20145;-61
2021/09/29 01:10:31;;;;;;;;;;;;;;;9.10;73.20;101845.55;1883956;76;20111;-61
2021/09/29 01:13:12;;;;;;;;;;;;;;;9.12;73.15;101843.77;1883647;76;20118;-61
2021/09/29 01:15:44;;;;;;;;;;;;;;;9.13;73.05;101845.52;1883826;76;20130;-61
2021/09/29 01:18:14;;;;;;;;;;;;;;;9.15;72.93;101845.05;1884004;76;20145;-61
2021/09/29 01:20:46;;;;;;;;;;;;;;;9.14;72.87;101841.98;1883971;76;20400;-61
2021/09/29 01:23:25;;;;;;;;;;;;;;;9.15;72.75;101844.16;1883950;76;20119;-61
2021/09/29 01:26:04;;;;;;;;;;;;;;;9.14;72.69;101843.30;1884146;76;20158;-61
2021/09/29 01:28:31;;;;;;;;;;;;;;;9.13;72.63;101843.31;1884199;75;20145;-61
2021/09/29 01:31:00;;;;;;;;;;;;;;;9.12;72.64;101837.20;1884039;76;20389;-61
2021/09/29 01:33:28;;;;;;;;;;;;;;;9.12;72.58;101838.97;1884190;76;20471;-61
2021/09/29 01:35:56;;;;;;;;;;;;;;;9.11;72.55;101843.36;1883959;76;20119;-62
2021/09/29 01:38:24;;;;;;;;;;;;;;;9.10;72.55;101843.38;1883946;76;20145;-61
2021/09/29 01:40:53;;;;;;;;;;;;;;;9.09;72.52;101845.11;1883886;76;20189;-61
2021/09/29 01:43:21;;;;;;;;;;;;;;;9.10;72.45;101847.32;1883970;76;20149;-61
2021/09/29 01:45:48;;;;;;;;;;;;;;;9.09;72.40;101849.06;1883881;76;20145;-61
2021/09/29 01:48:17;;;;;;;;;;;;;;;9.11;72.39;101846.41;1890502;75;20150;-62
2021/09/29 01:50:47;;;;;;;;;;;;;;;9.12;72.36;101847.70;1911024;75;20114;-62
2021/09/29 01:53:17;;;;;;;;;;;;;;;9.11;72.40;101846.41;1911002;75;20385;-62
2021/09/29 01:55:45;;;;;;;;;;;;;;;9.09;72.36;101847.74;1911021;75;20149;-62
2021/09/29 01:58:13;;;;;;;;;;;;;;;9.08;72.28;101849.97;1911156;75;20127;-62
2021/09/29 02:00:42;;;;;;;;;;;;;;;9.04;72.30;101850.91;1911189;75;20410;-62
2021/09/29 02:03:10;;;;;;;;;;;;;;;9.03;72.28;101857.04;1911046;75;20106;-62
2021/09/29 02:05:38;;;;;;;;;;;;;;;8.99;72.31;101856.22;1910994;75;20119;-63
2021/09/29 02:08:06;;;;;;;;;;;;;;;8.99;72.42;101857.98;1911036;75;20138;-62
2021/09/29 02:10:34;;;;;;;;;;;;;;;8.97;72.49;101851.89;1911273;75;20122;-61
2021/09/29 02:13:02;;;;;;;;;;;;;;;8.97;72.54;101859.77;1911065;75;20102;-61
2021/09/29 02:15:30;;;;;;;;;;;;;;;8.97;72.53;101851.89;1911065;75;20388;-61
2021/09/29 02:17:58;;;;;;;;;;;;;;;8.97;72.56;101847.95;1911060;75;20107;-61
2021/09/29 02:20:26;;;;;;;;;;;;;;;8.96;72.63;101847.05;1910974;75;20154;-61
2021/09/29 02:22:54;;;;;;;;;;;;;;;8.97;72.60;101853.20;1911067;75;20114;-60
2021/09/29 02:25:23;;;;;;;;;;;;;;;8.98;72.76;101852.30;1911043;75;20103;-61
2021/09/29 02:27:51;;;;;;;;;;;;;;;8.98;72.80;101845.30;1911035;75;20107;-61
2021/09/29 02:30:20;;;;;;;;;;;;;;;9.01;72.75;101852.26;1911013;75;20142;-61
2021/09/29 02:32:48;;;;;;;;;;;;;;;9.02;72.83;101850.07;1910974;75;20115;-61
2021/09/29 02:35:36;;;;;;;;;;;;;;;9.03;72.81;101846.53;1885308;76;20157;-61
2021/09/29 02:38:04;;;;;;;;;;;;;;;9.03;72.80;101843.91;1885231;76;20117;-61
2021/09/29 02:40:32;;;;;;;;;;;;;;;9.03;72.75;101842.59;1885311;76;20147;-61
2021/09/29 02:43:00;;;;;;;;;;;;;;;9.02;72.80;101843.50;1885220;76;20199;-61
2021/09/29 02:45:28;;;;;;;;;;;;;;;9.04;72.78;101844.34;1885202;76;20113;-61
2021/09/29 02:47:56;;;;;;;;;;;;;;;9.03;72.79;101839.97;1885271;76;20121;-60
2021/09/29 02:50:24;;;;;;;;;;;;;;;9.03;72.84;101843.91;1885185;76;20117;-61
2021/09/29 02:52:52;;;;;;;;;;;;;;;9.03;72.93;101843.91;1885242;76;20144;-61
2021/09/29 02:55:20;;;;;;;;;;;;;;;9.03;72.99;101847.84;1885277;76;20143;-61
2021/09/29 02:57:48;;;;;;;;;;;;;;;9.02;72.94;101847.44;1885208;76;20129;-62
2021/09/29 03:00:16;;;;;;;;;;;;;;;9.02;72.90;101854.01;1885195;76;20164;-61
2021/09/29 03:02:43;;;;;;;;;;;;;;;9.01;72.91;101848.32;1885375;76;20121;-61
2021/09/29 03:05:11;;;;;;;;;;;;;;;9.03;72.90;101859.21;1885240;76;20176;-61
2021/09/29 03:07:39;;;;;;;;;;;;;;;9.03;72.85;101855.27;1885276;76;20147;-61
2021/09/29 03:10:07;;;;;;;;;;;;;;;9.05;72.84;101861.38;1885223;76;20116;-61
2021/09/29 03:12:35;;;;;;;;;;;;;;;9.06;72.80;101858.32;1885146;76;20109;-61
2021/09/29 03:15:03;;;;;;;;;;;;;;;9.06;72.80;101864.89;1885252;76;20116;-61
2021/09/29 03:17:31;;;;;;;;;;;;;;;9.06;72.76;101860.50;1885216;76;20163;-61
2021/09/29 03:19:59;;;;;;;;;;;;;;;9.05;72.71;101861.38;1885269;76;20120;-61
2021/09/29 03:22:27;;;;;;;;;;;;;;;9.04;72.70;101864.05;1885217;76;20595;-61
2021/09/29 03:24:55;;;;;;;;;;;;;;;9.01;72.71;101869.34;1885135;76;20121;-63
2021/09/29 03:27:23;;;;;;;;;;;;;;;9.00;72.67;101872.84;1885112;76;20104;-61
2021/09/29 03:29:51;;;;;;;;;;;;;;;8.98;72.65;101869.37;1885132;76;20190;-61
2021/09/29 03:32:19;;;;;;;;;;;;;;;8.97;72.61;101873.77;1885176;76;20147;-61
2021/09/29 03:34:46;;;;;;;;;;;;;;;8.98;72.60;101874.20;1879376;76;20121;-61
2021/09/29 03:37:14;;;;;;;;;;;;;;;8.98;72.63;101874.63;1873230;77;20120;-62
2021/09/29 03:39:42;;;;;;;;;;;;;;;8.99;72.64;101877.69;1873160;77;20157;-62
2021/09/29 03:42:10;;;;;;;;;;;;;;;8.99;72.64;101879.86;1873219;77;20180;-62
2021/09/29 03:44:38;;;;;;;;;;;;;;;9.00;72.63;101877.67;1873247;76;20125;-61
2021/09/29 03:47:05;;;;;;;;;;;;;;;9.04;72.59;101881.13;1873250;77;20117;-62
2021/09/29 03:49:33;;;;;;;;;;;;;;;9.06;72.54;101885.45;1873163;77;20125;-60
2021/09/29 03:52:01;;;;;;;;;;;;;;;9.10;72.50;101888.91;1873100;77;20495;-61
2021/09/29 03:54:29;;;;;;;;;;;;;;;9.13;72.53;101882.30;1873226;77;20125;-61
2021/09/29 03:57:00;;;;;;;;;;;;;;;9.18;72.53;101876.51;1873253;77;20152;-62
2021/09/29 03:59:27;;;;;;;;;;;;;;;9.23;72.50;101885.20;1873257;77;20117;-61
2021/09/29 04:01:55;;;;;;;;;;;;;;;9.28;72.38;101880.75;1873387;77;20121;-61
2021/09/29 04:04:23;;;;;;;;;;;;;;;9.36;72.34;101884.56;1873251;77;20121;-61
2021/09/29 04:06:51;;;;;;;;;;;;;;;9.41;72.28;101887.14;1873161;76;20117;-60
2021/09/29 04:09:18;;;;;;;;;;;;;;;9.49;72.42;101890.95;1873227;77;20141;-61
2021/09/29 04:11:46;;;;;;;;;;;;;;;9.52;72.26;101891.77;1873183;77;20121;-61
2021/09/29 04:14:16;;;;;;;;;;;;;;;9.58;72.23;101889.48;1873239;77;20105;-62
2021/09/29 04:16:43;;;;;;;;;;;;;;;9.63;72.52;101888.52;1873334;77;20117;-62
2021/09/29 04:19:11;;;;;;;;;;;;;;;9.71;72.66;101896.73;1873142;77;20117;-62
2021/09/29 04:21:39;;;;;;;;;;;;;;;9.75;72.86;101895.77;1873218;77;20230;-62
2021/09/29 04:24:07;;;;;;;;;;;;;;;9.81;73.34;101898.28;1873200;77;20124;-62
2021/09/29 04:26:35;;;;;;;;;;;;;;;9.86;73.69;101903.03;1873170;77;20121;-61
2021/09/29 04:29:03;;;;;;;;;;;;;;;9.92;73.54;101902.91;1873164;76;20113;-61
2021/09/29 04:31:31;;;;;;;;;;;;;;;9.96;73.46;101898.04;1873371;77;20109;-61
2021/09/29 04:33:59;;;;;;;;;;;;;;;10.04;73.78;101900.06;1873128;77;20111;-61
2021/09/29 04:36:29;;;;;;;;;;;;;;;10.10;74.17;101907.44;1873152;77;20121;-61
2021/09/29 04:39:15;;;;;;;;;;;;;;;10.16;73.72;101903.37;1911907;75;20147;-60
2021/09/29 04:41:43;;;;;;;;;;;;;;;10.23;74.33;101911.11;1911749;75;20110;-60
2021/09/29 04:44:11;;;;;;;;;;;;;;;10.28;74.30;101904.45;1911693;74;20115;-60
2021/09/29 04:46:39;;;;;;;;;;;;;;;10.32;74.52;101909.25;1911702;75;20099;-60
2021/09/29 04:49:07;;;;;;;;;;;;;;;10.35;74.42;101911.84;1911795;75;20166;-60
2021/09/29 04:51:35;;;;;;;;;;;;;;;10.37;75.18;101906.95;1911744;75;20114;-61
2021/09/29 04:54:03;;;;;;;;;;;;;;;10.40;74.99;101917.43;1911764;75;20145;-60
2021/09/29 04:56:31;;;;;;;;;;;;;;;10.43;74.42;101908.13;1911725;75;20118;-60
2021/09/29 04:58:59;;;;;;;;;;;;;;;10.47;74.36;101912.89;1911640;75;20122;-60
2021/09/29 05:01:26;;;;;;;;;;;;;;;10.49;74.49;101916.81;1911707;75;20180;-60
2021/09/29 05:03:55;;;;;;;;;;;;;;;10.51;75.09;101916.33;1911727;75;20107;-60
2021/09/29 05:06:23;;;;;;;;;;;;;;;10.53;74.69;101912.80;1911690;75;20111;-60
2021/09/29 05:08:51;;;;;;;;;;;;;;;10.57;75.52;101912.28;1911723;75;20115;-60
2021/09/29 05:11:26;;;;;;;;;;;;;;;10.58;75.54;101915.31;1911616;75;20407;-60
2021/09/29 05:13:56;;;;;;;;;;;;;;;10.62;75.87;101916.98;1911636;75;20115;-60
2021/09/29 05:16:23;;;;;;;;;;;;;;;10.65;75.59;101916.92;1911762;75;20115;-60
2021/09/29 05:18:51;;;;;;;;;;;;;;;10.71;75.67;101927.78;1911813;75;20182;-60
2021/09/29 05:21:19;;;;;;;;;;;;;;;10.76;75.45;101927.25;1911689;75;20145;-60
2021/09/29 05:23:47;;;;;;;;;;;;;;;10.82;75.06;101925.33;1911659;75;20166;-61
2021/09/29 05:26:16;;;;;;;;;;;;;;;10.90;75.08;101926.94;1911688;75;20189;-60
2021/09/29 05:28:47;;;;;;;;;;;;;;;10.95;75.51;101926.40;1911697;75;20118;-60
2021/09/29 05:31:15;;;;;;;;;;;;;;;11.03;75.17;101927.11;1911827;75;20485;-60
2021/09/29 05:33:43;;;;;;;;;;;;;;;11.08;75.43;101923.91;1911694;75;20119;-60
2021/09/29 05:36:11;;;;;;;;;;;;;;;11.12;75.60;101922.95;1911654;75;20115;-60
2021/09/29 05:38:38;;;;;;;;;;;;;;;11.17;75.58;101925.47;1910030;75;20123;-61
2021/09/29 05:41:06;;;;;;;;;;;;;;;11.23;75.79;101922.69;1908971;75;20118;-60
2021/09/29 05:43:34;;;;;;;;;;;;;;;11.32;75.80;101921.16;1909072;75;20145;-60
2021/09/29 05:46:02;;;;;;;;;;;;;;;11.42;75.28;101920.52;1909008;75;20110;-60
2021/09/29 05:48:30;;;;;;;;;;;;;;;11.53;75.13;101921.12;1908977;75;20142;-61
2021/09/29 05:50:58;;;;;;;;;;;;;;;11.61;74.82;101920.06;1909175;75;20531;-62
2021/09/29 05:53:25;;;;;;;;;;;;;;;11.70;74.83;101922.48;1909027;75;20119;-60
2021/09/29 05:55:53;;;;;;;;;;;;;;;11.70;74.50;101922.48;1909001;75;20147;-60
2021/09/29 06:01:10;;;;;;;;;;;;;;;11.87;74.20;101917.63;1835675;78;20119;-60
2021/09/29 06:03:38;;;;;;;;;;;;;;;11.95;73.87;101917.03;1835581;78;20158;-60
2021/09/29 06:06:05;;;;;;;;;;;;;;;12.01;73.77;101920.39;1835665;78;20150;-60
2021/09/29 06:08:33;;;;;;;;;;;;;;;12.05;73.61;101926.89;1835663;78;20115;-60
2021/09/29 06:11:01;;;;;;;;;;;;;;;12.09;73.58;101925.03;1835669;78;20120;-60
2021/09/29 06:13:30;;;;;;;;;;;;;;;12.12;73.49;101928.45;1918498;72;20112;-61
2021/09/29 06:16:06;;;;;;;;;;;;;;;12.14;73.50;101928.42;1918143;74;20143;-60
2021/09/29 06:18:28;;;;;;;;;;;;;;;12.15;73.21;101924.86;1917614;74;20093;-60
2021/09/29 06:20:56;;;;;;;;;;;;;;;12.20;73.11;101925.61;1918122;75;20113;-60
2021/09/29 06:23:23;;;;;;;;;;;;;;;12.21;73.08;101924.72;1918150;75;20143;-60
2021/09/29 06:25:51;;;;;;;;;;;;;;;12.20;73.06;101930.89;1918200;75;20149;-60
2021/09/29 06:28:20;;;;;;;;;;;;;;;12.18;73.02;101928.75;1918249;75;20113;-59
2021/09/29 06:30:48;;;;;;;;;;;;;;;12.20;73.15;101932.21;1918068;75;20191;-59
2021/09/29 06:33:18;;;;;;;;;;;;;;;12.16;73.11;101937.16;1918159;74;20168;-59
2021/09/29 06:36:05;;;;;;;;;;;;;;;12.13;73.03;101935.45;1878999;76;20405;-59
2021/09/29 06:38:33;;;;;;;;;;;;;;;12.17;72.92;101936.24;1878942;76;20115;-59
2021/09/29 06:41:00;;;;;;;;;;;;;;;12.20;72.93;101930.89;1878835;76;20111;-59
2021/09/29 06:43:28;;;;;;;;;;;;;;;12.25;73.04;101930.32;1879059;76;20249;-59
2021/09/29 06:45:56;;;;;;;;;;;;;;;12.26;72.93;101929.86;1878939;76;20162;-59
2021/09/29 06:48:24;;;;;;;;;;;;;;;12.30;72.89;101942.95;1878953;76;20115;-60
2021/09/29 06:50:52;;;;;;;;;;;;;;;12.30;72.85;101941.63;1878869;76;20119;-60
2021/09/29 06:53:21;;;;;;;;;;;;;;;12.29;72.79;101938.56;1878957;76;20115;-61
2021/09/29 06:55:49;;;;;;;;;;;;;;;12.39;72.87;101944.91;1878857;76;20154;-59
2021/09/29 06:58:18;;;;;;;;;;;;;;;12.48;72.72;101940.70;1878893;76;20111;-59
2021/09/29 07:00:46;;;;;;;;;;;;;;;12.63;72.61;101937.61;1878906;76;20119;-59
2021/09/29 07:03:14;;;;;;;;;;;;;;;12.75;72.52;101942.55;1878932;76;20111;-59
2021/09/29 07:05:42;;;;;;;;;;;;;;;12.90;72.26;101933.77;1878882;76;20119;-61
2021/09/29 07:08:10;;;;;;;;;;;;;;;13.06;72.04;101936.84;1878840;75;20138;-59
2021/09/29 07:10:38;;;;;;;;;;;;;;;13.31;71.63;101933.84;1878939;76;20170;-59
2021/09/29 07:13:10;;;;;;;;;;;;;;;13.51;71.38;101931.89;1943725;73;20115;-59
2021/09/29 07:15:39;;;;;;;;;;;;;;;13.77;71.16;101934.14;1955905;73;20413;-60
2021/09/29 07:18:09;;;;;;;;;;;;;;;14.01;70.63;101936.88;1955914;73;20355;-60
2021/09/29 07:20:37;;;;;;;;;;;;;;;14.08;69.74;101935.76;1955851;73;20147;-60
2021/09/29 07:23:08;;;;;;;;;;;;;;;14.10;69.55;101936.56;1955884;73;20161;-60
2021/09/29 07:25:37;;;;;;;;;;;;;;;14.14;69.08;101926.73;1956033;73;20374;-60
2021/09/29 07:28:06;;;;;;;;;;;;;;;14.26;68.48;101932.47;1955925;73;20370;-60
2021/09/29 07:30:34;;;;;;;;;;;;;;;14.24;67.91;101929.48;1955997;73;20147;-60
2021/09/29 07:33:03;;;;;;;;;;;;;;;14.18;67.64;101927.88;1955974;73;20394;-61
2021/09/29 07:35:31;;;;;;;;;;;;;;;14.11;66.99;101925.07;1955882;73;20116;-60
2021/09/29 07:38:00;;;;;;;;;;;;;;;14.10;67.49;101925.97;1956008;73;20116;-60
2021/09/29 07:40:29;;;;;;;;;;;;;;;14.09;67.35;101925.55;1955902;73;20142;-60
2021/09/29 07:42:58;;;;;;;;;;;;;;;14.10;67.52;101926.83;1955897;73;20108;-60
2021/09/29 07:45:26;;;;;;;;;;;;;;;14.09;67.10;101921.58;1955912;73;20100;-60
2021/09/29 07:47:54;;;;;;;;;;;;;;;14.10;67.14;101914.05;1955786;73;20116;-60
2021/09/29 07:50:23;;;;;;;;;;;;;;;14.10;67.19;101918.88;1955898;73;20179;-60
2021/09/29 07:52:51;;;;;;;;;;;;;;;14.23;67.28;101917.14;1955848;73;20100;-60
2021/09/29 07:55:19;;;;;;;;;;;;;;;14.35;66.98;101918.47;1955889;73;20112;-60
2021/09/29 07:57:47;;;;;;;;;;;;;;;14.28;66.19;101916.52;1955865;73;20141;-60
2021/09/29 08:00:16;;;;;;;;;;;;;;;14.18;66.29;101920.41;1955820;73;20116;-62
2021/09/29 08:02:45;;;;;;;;;;;;;;;14.12;66.47;101912.22;1955774;73;20386;-60
2021/09/29 08:05:14;;;;;;;;;;;;;;;14.12;66.91;101916.19;1956081;73;20193;-60
2021/09/29 08:07:42;;;;;;;;;;;;;;;14.18;67.05;101914.63;1955986;73;20375;-60
2021/09/29 08:10:10;;;;;;;;;;;;;;;14.26;67.10;101910.42;1955855;73;20143;-60
2021/09/29 08:12:38;;;;;;;;;;;;;;;14.36;67.14;101913.59;1959508;73;20124;-61
2021/09/29 08:15:12;;;;;;;;;;;;;;;14.41;66.24;101910.32;1963461;73;20195;-60
2021/09/29 08:17:36;;;;;;;;;;;;;;;14.46;65.64;101915.00;1962461;73;20116;-60
2021/09/29 08:20:04;;;;;;;;;;;;;;;14.80;65.51;101913.76;1963498;73;20108;-60
2021/09/29 08:22:32;;;;;;;;;;;;;;;15.00;64.72;101908.55;1963516;73;20301;-60
2021/09/29 08:27:38;;;;;;;;;;;;;;;15.15;64.40;101904.42;1916572;73;20116;-60
2021/09/29 08:30:13;;;;;;;;;;;;;;;15.43;64.12;101898.86;1961280;73;20406;-60
2021/09/29 08:35:29;;;;;;;;;;;;;;;15.83;63.00;101889.27;1963637;73;20108;-60
2021/09/29 08:38:05;;;;;;;;;;;;;;;16.12;61.64;101895.13;1963153;73;20112;-62
2021/09/29 08:43:14;;;;;;;;;;;;;;;16.64;60.43;101896.38;1963481;73;20107;-60
2021/09/29 08:45:48;;;;;;;;;;;;;;;16.71;59.06;101896.02;1961759;73;20116;-60
2021/09/29 08:48:20;;;;;;;;;;;;;;;16.55;58.83;101893.19;1961202;73;20112;-62
2021/09/29 09:15:22;;;;;;;;;;;;;;;17.02;57.80;101886.59;2005435;72;20194;-61
2021/09/29 09:17:39;;;;;;;;;;;;;;;17.10;56.55;101885.78;2002009;72;20200;-61
2021/09/29 09:20:17;;;;;;;;;;;;;;;17.11;57.09;101885.30;2005540;72;20121;-60
2021/09/29 09:22:47;;;;;;;;;;;;;;;17.20;56.55;101883.52;2005528;72;20110;-61
2021/09/29 09:25:15;;;;;;;;;;;;;;;17.17;56.08;101875.67;2005616;72;20136;-61
2021/09/29 09:27:47;;;;;;;;;;;;;;;17.02;56.35;101889.25;2005504;72;20098;-61
2021/09/29 09:30:16;;;;;;;;;;;;;;;16.86;57.32;101879.83;2005447;72;20191;-61
2021/09/29 09:32:45;;;;;;;;;;;;;;;16.78;57.12;101888.15;1990995;72;20114;-60
2021/09/29 09:35:13;;;;;;;;;;;;;;;16.63;57.67;101902.61;2005553;72;20110;-60
2021/09/29 09:37:52;;;;;;;;;;;;;;;16.45;58.10;101891.89;2005633;72;20129;-60
2021/09/29 09:40:16;;;;;;;;;;;;;;;16.37;58.53;101889.56;2004005;72;20098;-61
2021/09/29 09:42:45;;;;;;;;;;;;;;;16.32;58.65;101889.38;2005513;72;20360;-61
2021/09/29 09:45:14;;;;;;;;;;;;;;;16.30;58.81;101888.58;2005696;71;20117;-61
2021/09/29 09:47:45;;;;;;;;;;;;;;;16.20;58.65;101885.01;2005475;72;20634;-60
2021/09/29 09:50:12;;;;;;;;;;;;;;;16.21;58.77;101888.08;2005478;72;20113;-60
2021/09/29 09:52:43;;;;;;;;;;;;;;;16.21;58.54;101878.77;2005505;72;20152;-61
2021/09/29 09:55:12;;;;;;;;;;;;;;;16.26;58.29;101879.88;2005672;72;20215;-61
2021/09/29 09:57:41;;;;;;;;;;;;;;;16.40;58.43;101877.47;2005509;71;20152;-60
2021/09/29 10:00:11;;;;;;;;;;;;;;;16.51;57.89;101871.67;2005516;72;20098;-61
2021/09/29 10:02:40;;;;;;;;;;;;;;;16.75;57.96;101862.16;2003532;72;20140;-62
2021/09/29 10:05:08;;;;;;;;;;;;;;;17.17;57.43;101858.38;2000589;72;20105;-60
2021/09/29 10:07:36;;;;;;;;;;;;;;;17.40;56.04;101863.05;2005397;72;20110;-61
2021/09/29 10:22:49;;;;;;;;;;;;;;;17.95;54.62;101858.94;2006326;71;20110;-60
2021/09/29 10:26:25;;;;;;;;;;;;;;;19.61;51.73;101839.02;2006183;71;20136;-62
2021/09/29 10:29:04;;;;;;;;;;;;;;;19.77;49.80;101855.48;2006295;71;20114;-61
2021/09/29 10:47:49;;;;;;;;;;;;;;;18.12;53.18;101834.91;2006150;71;20129;-60
2021/09/29 11:02:52;;;;;;;;;;;;;;;18.08;52.97;101826.69;2006166;71;20132;-60
2021/09/29 11:07:07;;;;;;;;;;;;;;;17.56;53.40;101829.39;2006212;71;20113;-60
2021/09/29 11:09:45;;;;;;;;;;;;;;;17.40;53.14;101827.11;2002544;71;20144;-61
2021/09/29 11:28:45;;;;;;;;;;;;;;;16.83;54.23;101821.92;1902045;75;20116;-61
2021/09/29 11:31:20;;;;;;;;;;;;;;;16.89;54.03;101817.15;1898382;75;20104;-61
2021/09/29 11:33:52;;;;;;;;;;;;;;;17.04;53.28;101817.34;1901190;75;20120;-61
2021/09/29 11:37:31;;;;;;;;;;;;;;;17.18;53.09;101814.88;1901101;75;20116;-61
2021/09/29 12:11:53;;;;;;;;;;;;;;;17.29;54.50;101812.53;1902025;75;20100;-60
2021/09/29 12:14:19;;;;;;;;;;;;;;;17.31;53.95;101816.45;1901436;75;20171;-61
2021/09/29 12:16:48;;;;;;;;;;;;;;;17.27;53.65;101813.56;1901916;75;20104;-61
2021/09/29 12:19:26;;;;;;;;;;;;;;;17.23;53.50;101822.64;1901552;75;20150;-60
2021/09/29 12:21:56;;;;;;;;;;;;;;;17.29;54.05;101819.19;1898811;74;20122;-61
2021/09/29 12:24:30;;;;;;;;;;;;;;;17.42;54.13;101812.77;1896287;75;20165;-60
2021/09/29 12:27:00;;;;;;;;;;;;;;;17.54;53.71;101821.95;1897746;76;20141;-61
2021/09/29 12:29:49;;;;;;;;;;;;;;;17.49;53.33;101812.86;1897694;76;20483;-60
2021/09/29 12:32:54;;;;;;;;;;;;;;;17.45;53.75;101813.11;1895138;75;20145;-61
2021/09/29 12:35:14;;;;;;;;;;;;;;;17.32;52.71;101820.37;1884391;76;20158;-60
2021/09/29 12:37:37;;;;;;;;;;;;;;;17.20;52.96;101815.66;1896705;75;20114;-61
2021/09/29 12:40:06;;;;;;;;;;;;;;;17.18;53.52;101815.73;1897648;76;20106;-61
2021/09/29 12:42:35;;;;;;;;;;;;;;;17.25;53.95;101815.44;1897612;76;20115;-61
2021/09/29 12:45:03;;;;;;;;;;;;;;;17.30;54.02;101814.27;1897661;75;20119;-61
2021/09/29 12:50:16;;;;;;;;;;;;;;;17.42;53.79;101814.59;1897589;76;20392;-62
2021/09/29 12:52:35;;;;;;;;;;;;;;;17.43;52.48;101807.86;1893711;75;20114;-61
2021/09/29 12:55:04;;;;;;;;;;;;;;;17.38;52.63;101809.88;1897792;76;20103;-62
2021/09/29 12:57:32;;;;;;;;;;;;;;;17.32;53.19;101808.39;1897739;76;20119;-61
2021/09/29 13:00:00;;;;;;;;;;;;;;;17.30;53.73;101803.63;1897738;76;20188;-61
2021/09/29 13:02:28;;;;;;;;;;;;;;;17.29;54.14;101813.01;1897715;76;20122;-61
2021/09/29 13:04:56;;;;;;;;;;;;;;;17.22;53.99;101809.78;1897659;76;20601;-61
2021/09/29 13:07:24;;;;;;;;;;;;;;;17.14;53.12;101806.18;1897730;76;20114;-61
2021/09/29 13:09:54;;;;;;;;;;;;;;;17.09;53.12;101810.00;1897701;76;20173;-61
2021/09/29 13:12:22;;;;;;;;;;;;;;;17.03;53.14;101805.00;1897725;76;20102;-61
2021/09/29 13:14:50;;;;;;;;;;;;;;;17.00;53.43;101805.14;1897694;76;20126;-60
2021/09/29 13:17:18;;;;;;;;;;;;;;;16.95;53.46;101803.57;1897666;76;20115;-61
2021/09/29 13:19:56;;;;;;;;;;;;;;;16.90;53.69;101801.59;1897746;76;20118;-61
2021/09/29 13:22:20;;;;;;;;;;;;;;;16.89;53.86;101798.53;1896820;73;20114;-61
2021/09/29 13:27:33;;;;;;;;;;;;;;;16.96;53.34;101799.95;1897723;76;20119;-61
2021/09/29 13:38:11;;;;;;;;;;;;;;;16.85;52.83;101799.63;1897637;76;20118;-60
2021/09/29 13:40:41;;;;;;;;;;;;;;;16.83;53.23;101790.01;1897718;75;20144;-60
2021/09/29 13:43:09;;;;;;;;;;;;;;;16.80;53.10;101793.63;1897803;76;20114;-60
2021/09/29 13:45:38;;;;;;;;;;;;;;;16.77;53.18;101790.66;1897652;76;20381;-60
2021/09/29 13:48:06;;;;;;;;;;;;;;;16.75;52.75;101791.68;1897775;76;20106;-60
2021/09/29 13:50:34;;;;;;;;;;;;;;;16.71;52.70;101794.06;1897572;76;20114;-62
2021/09/29 13:53:03;;;;;;;;;;;;;;;16.69;52.58;101798.60;1897674;76;20185;-61
2021/09/29 13:55:32;;;;;;;;;;;;;;;16.63;52.43;101803.75;1897632;76;20376;-60
2021/09/29 13:58:07;;;;;;;;;;;;;;;16.58;52.81;101799.99;1897697;76;20439;-60
2021/09/29 14:30:43;;;;;;;;;;;;;;;16.06;54.70;101828.95;1897700;76;20173;-61
2021/09/29 14:33:22;;;;;;;;;;;;;;;16.05;54.74;101829.05;1897627;75;20197;-61
2021/09/29 14:35:50;;;;;;;;;;;;;;;16.03;55.06;101831.77;1897403;75;20102;-61
2021/09/29 14:38:39;;;;;;;;;;;;;;;16.00;55.27;101840.72;1897621;76;20166;-62
2021/09/29 14:41:07;;;;;;;;;;;;;;;15.97;55.16;101837.33;1897774;76;20115;-62
2021/09/29 14:43:35;;;;;;;;;;;;;;;15.95;55.32;101844.52;1897710;76;20149;-61
2021/09/29 14:46:03;;;;;;;;;;;;;;;15.91;55.32;101842.45;1898015;76;20114;-61
2021/09/29 14:48:30;;;;;;;;;;;;;;;15.89;55.09;101844.80;1897808;76;20145;-61
2021/09/29 14:50:58;;;;;;;;;;;;;;;15.85;55.11;101846.72;1897763;76;20204;-62
2021/09/29 14:53:26;;;;;;;;;;;;;;;15.85;55.07;101844.53;1897718;76;20145;-62
2021/09/29 14:55:54;;;;;;;;;;;;;;;15.82;55.05;101846.40;1897232;76;20149;-63
2021/09/29 14:58:21;;;;;;;;;;;;;;;15.80;55.16;101848.23;1897288;76;20144;-63
2021/09/29 15:00:49;;;;;;;;;;;;;;;15.78;55.31;101847.44;1894110;76;20118;-62
2021/09/29 15:03:17;;;;;;;;;;;;;;;15.75;55.18;101851.58;1864082;76;20137;-68
2021/09/29 15:05:45;;;;;;;;;;;;;;;15.72;55.36;101854.31;1881468;76;20154;-67
2021/09/29 15:08:13;;;;;;;;;;;;;;;15.70;55.52;101858.83;1897733;76;20163;-67
2021/09/29 15:10:41;;;;;;;;;;;;;;;15.66;55.64;101859.02;1897627;76;20124;-68
2021/09/29 15:13:12;;;;;;;;;;;;;;;15.63;55.71;101862.67;1897728;76;20110;-70
2021/09/29 15:18:11;;;;;;;;;;;;;;;15.57;55.82;101873.56;1830918;76;20116;-69
2021/09/29 15:20:58;;;;;;;;;;;;;;;15.53;55.96;101876.80;1897477;76;20409;-69
2021/09/29 15:23:18;;;;;;;;;;;;;;;15.51;55.98;101877.34;1894509;76;20114;-68
2021/09/29 15:25:51;;;;;;;;;;;;;;;15.49;56.06;101887.59;1895220;75;20111;-71
2021/09/29 15:28:31;;;;;;;;;;;;;;;15.46;56.15;101885.09;1862624;77;20121;-70
2021/09/29 15:47:28;;;;;;;;;;;;;;;15.28;56.76;101909.25;1900195;75;20117;-62
2021/09/29 15:55:28;;;;;;;;;;;;;;;15.18;56.82;101918.02;1925714;75;20168;-63
2021/09/29 16:00:57;;;;;;;;;;;;;;;15.13;56.94;101918.22;1829267;75;20172;-64
2021/09/29 16:08:50;;;;;;;;;;;;;;;15.05;57.02;101927.81;1890881;76;20152;-63
2021/09/29 16:11:34;;;;;;;;;;;;;;;15.03;56.98;101937.62;1897014;75;20110;-62
2021/09/29 16:16:39;;;;;;;;;;;;;;;15.00;57.03;101940.38;1913736;75;20112;-62
2021/09/29 16:30:06;;;;;;;;;;;;;;;14.88;57.21;101956.75;1798598;79;20152;-65